Airport ICAO


14:37 UTC

7°C

Clear skies


An affordable passengers' Moving Map for your aircraft. Made for the iPad and the iPhone
More information here

EGLF Farnborough


Farnborough UNITED KINGDOM   VFR CAVOK


METAR EGLF 241420Z 35004KT 310V010 CAVOK 07/04 Q1012 0h17min

TAF EGLF 241353Z 2415/2422 31004KT CAVOK 0h44min





NOTAMS

OPEN